EFKK

Kruunupyy Airport

Kokkola / Kruunupyy, Finland
METAR EFKK 211320Z 06008KT 020V130 9999 FEW034TCU SCT070 27/17 Q1004
Observed Flight Rules
Jul-21 @ 13:20 UTC (28 minutes ago) Visual Flight Rules
Wind Visibility Clouds
60° at 8 knots 10,000+ meters
  • Few at 3,400' AGL
  • Scattered at 7,000' AGL
Temperatures Readings
Current 27°C / 81°F
Dewpoint 17°C / 63°F
Humidity 54%
Altimeter 29.65" Hg
Pressure 1004 hPa
Elevation 25
METAR EFKK 211320Z 06008KT 020V130 9999 FEW034TCU SCT070 27/17 Q1004
Observed Flight Rules
Jul-21 @ 13:20 UTC
(28 minutes ago)
VFR
Wind Visibility
60° at 8 knots 10,000+ meters
Clouds
  • Few at 3,400' AGL
  • Scattered at 7,000' AGL
Temperature Dewpoint
27°C / 81°F 17°C / 63°F
Humidity Altimeter Pressure
54% 29.65" Hg 1004 hPa